createdAt,value
2023-01-08T00:02:31.224Z,59.15
2023-01-08T00:05:04.090Z,58.35
2023-01-08T00:07:36.855Z,64.47
2023-01-08T00:10:09.806Z,59.08
2023-01-08T00:12:42.410Z,59.60
2023-01-08T00:15:15.084Z,66.75
2023-01-08T00:17:48.051Z,57.22
2023-01-08T00:20:20.769Z,60.20
2023-01-08T00:22:53.400Z,66.75
2023-01-08T00:25:26.255Z,66.05
2023-01-08T00:27:58.778Z,73.15
2023-01-08T00:30:31.483Z,65.15
2023-01-08T00:33:04.270Z,59.95
2023-01-08T00:35:39.646Z,64.63
2023-01-08T00:38:12.739Z,76.68
2023-01-08T00:40:45.284Z,67.32
2023-01-08T00:43:17.839Z,65.20
2023-01-08T00:45:54.052Z,68.10
2023-01-08T00:48:27.045Z,67.22
2023-01-08T00:51:03.595Z,65.30
2023-01-08T00:53:36.387Z,69.05
2023-01-08T00:56:10.846Z,68.80
2023-01-08T00:58:43.281Z,63.58
2023-01-08T01:01:16.396Z,63.42
2023-01-08T01:03:49.084Z,65.57
2023-01-08T01:06:22.264Z,65.65
2023-01-08T01:08:54.926Z,70.80
2023-01-08T01:11:29.189Z,75.22
2023-01-08T01:14:02.010Z,76.27
2023-01-08T01:16:36.619Z,71.65
2023-01-08T01:19:09.657Z,68.68
2023-01-08T01:21:42.644Z,74.50
2023-01-08T01:24:15.903Z,67.28
2023-01-08T01:26:48.445Z,64.60
2023-01-08T01:29:20.837Z,72.82
2023-01-08T01:31:53.488Z,66.07
2023-01-08T01:34:26.011Z,76.20
2023-01-08T01:36:58.501Z,70.32
2023-01-08T01:39:30.886Z,67.63
2023-01-08T01:42:03.319Z,76.03
2023-01-08T01:44:39.708Z,65.00
2023-01-08T01:47:30.138Z,64.90
2023-01-08T01:50:09.165Z,68.07
2023-01-08T01:52:46.044Z,68.55
2023-01-08T01:55:18.946Z,66.47
2023-01-08T01:57:58.436Z,68.68
2023-01-08T02:00:31.567Z,72.88
2023-01-08T02:03:06.194Z,68.40
2023-01-08T02:05:50.615Z,62.65
2023-01-08T02:08:37.754Z,58.53
2023-01-08T02:11:14.996Z,65.20
2023-01-08T02:13:56.843Z,69.65
2023-01-08T02:16:47.036Z,66.18
2023-01-08T02:19:39.678Z,58.70
2023-01-08T02:22:46.599Z,63.65
2023-01-08T02:25:44.587Z,59.72
2023-01-08T02:28:17.937Z,63.90
2023-01-08T02:30:50.810Z,62.72
2023-01-08T02:33:24.653Z,65.53
2023-01-08T02:36:13.681Z,68.28
2023-01-08T02:39:09.549Z,66.50
2023-01-08T02:42:08.763Z,66.15
2023-01-08T02:44:57.200Z,58.85
2023-01-08T02:47:33.609Z,72.53
2023-01-08T02:50:22.258Z,70.50
2023-01-08T02:53:02.446Z,74.35
2023-01-08T02:55:37.693Z,69.10
2023-01-08T02:58:11.796Z,66.03
2023-01-08T03:00:46.875Z,77.38
2023-01-08T03:03:23.970Z,73.88
2023-01-08T03:06:00.271Z,64.63
2023-01-08T03:08:36.908Z,74.95
2023-01-08T03:11:12.708Z,81.72
2023-01-08T03:14:04.808Z,67.75
2023-01-08T03:16:41.809Z,71.70
2023-01-08T03:19:26.019Z,65.55
2023-01-08T03:22:00.084Z,75.32
2023-01-08T03:24:37.926Z,65.95
2023-01-08T03:27:15.423Z,76.97
2023-01-08T03:29:52.465Z,68.47
2023-01-08T03:32:27.239Z,83.43
2023-01-08T03:35:02.762Z,75.70
2023-01-08T03:37:39.994Z,83.50
2023-01-08T03:40:20.608Z,81.80
2023-01-08T03:42:53.454Z,79.78
2023-01-08T03:45:28.282Z,78.57
2023-01-08T03:48:02.787Z,94.03
2023-01-08T03:50:35.464Z,61.47
2023-01-08T03:53:09.856Z,87.15
2023-01-08T03:55:42.672Z,86.07
2023-01-08T03:58:15.280Z,88.88
2023-01-08T04:00:48.107Z,86.43
2023-01-08T04:03:20.725Z,99.97
2023-01-08T04:05:53.331Z,90.70
2023-01-08T04:08:26.071Z,92.35
2023-01-08T04:10:58.650Z,87.53
2023-01-08T04:13:31.277Z,99.95
2023-01-08T04:16:04.035Z,115.60
2023-01-08T04:18:36.539Z,102.55
2023-01-08T04:21:09.110Z,103.43
2023-01-08T04:23:41.619Z,113.65
2023-01-08T04:26:14.155Z,123.50
2023-01-08T04:28:46.908Z,117.80
2023-01-08T04:31:19.683Z,126.78
2023-01-08T04:33:52.155Z,133.52
2023-01-08T04:36:24.565Z,120.35
2023-01-08T04:38:57.026Z,110.30
2023-01-08T04:41:29.632Z,109.60
2023-01-08T04:44:02.138Z,103.78
2023-01-08T04:46:34.933Z,99.85
2023-01-08T04:49:07.556Z,100.93
2023-01-08T04:51:40.280Z,104.75
2023-01-08T04:54:12.798Z,106.88
2023-01-08T04:56:45.433Z,112.70
2023-01-08T04:59:18.074Z,115.85
2023-01-08T05:01:50.905Z,114.28
2023-01-08T05:04:23.695Z,122.25
2023-01-08T05:06:56.392Z,120.22
2023-01-08T05:09:28.948Z,124.65
2023-01-08T05:12:01.788Z,111.80
2023-01-08T05:14:34.318Z,117.40
2023-01-08T05:17:06.938Z,123.47
2023-01-08T05:19:39.608Z,116.38
2023-01-08T05:22:12.211Z,116.30
2023-01-08T05:24:44.836Z,111.10
2023-01-08T05:27:17.505Z,113.30
2023-01-08T05:29:51.243Z,119.00
2023-01-08T05:32:23.771Z,118.95
2023-01-08T05:34:56.274Z,105.70
2023-01-08T05:37:28.828Z,107.22
2023-01-08T05:40:01.429Z,111.70
2023-01-08T05:42:35.950Z,123.47
2023-01-08T05:45:09.131Z,120.97
2023-01-08T05:47:41.748Z,97.82
2023-01-08T05:50:14.487Z,90.57
2023-01-08T05:52:47.366Z,103.38
2023-01-08T05:55:19.891Z,107.25
2023-01-08T05:57:52.479Z,110.00
2023-01-08T06:00:26.567Z,111.45
2023-01-08T06:02:59.489Z,112.65
2023-01-08T06:05:33.175Z,113.57
2023-01-08T06:08:08.458Z,112.28
2023-01-08T06:10:41.207Z,104.53
2023-01-08T06:13:13.771Z,109.95
2023-01-08T06:15:46.423Z,111.25
2023-01-08T06:18:18.981Z,105.63
2023-01-08T06:20:51.752Z,100.03
2023-01-08T06:23:24.355Z,110.95
2023-01-08T06:25:59.432Z,118.63
2023-01-08T06:28:33.057Z,95.15
2023-01-08T06:31:05.807Z,110.85
2023-01-08T06:33:38.310Z,123.30
2023-01-08T06:36:11.132Z,109.30
2023-01-08T06:38:43.691Z,102.75
2023-01-08T06:41:16.147Z,115.43
2023-01-08T06:43:48.655Z,121.53
2023-01-08T06:46:21.093Z,121.22
2023-01-08T06:48:53.565Z,126.10
2023-01-08T06:51:25.962Z,140.52
2023-01-08T06:53:58.503Z,143.82
2023-01-08T06:56:31.232Z,121.68
2023-01-08T06:59:03.900Z,128.75
2023-01-08T07:01:36.575Z,148.73
2023-01-08T07:04:09.649Z,128.45
2023-01-08T07:06:42.141Z,142.98
2023-01-08T07:09:15.534Z,154.98
2023-01-08T07:11:48.058Z,132.95
2023-01-08T07:14:21.093Z,163.90
2023-01-08T07:16:53.477Z,138.95
2023-01-08T07:19:26.067Z,149.13
2023-01-08T07:21:58.571Z,145.13
2023-01-08T07:24:31.167Z,155.00
2023-01-08T07:27:03.926Z,155.70
2023-01-08T07:29:36.405Z,134.00
2023-01-08T07:32:09.096Z,149.45
2023-01-08T07:34:41.715Z,148.63
2023-01-08T07:37:14.588Z,160.38
2023-01-08T07:39:47.182Z,130.10
2023-01-08T07:42:20.312Z,159.55
2023-01-08T07:44:53.033Z,185.05
2023-01-08T07:47:25.723Z,152.20
2023-01-08T07:49:58.272Z,179.05
2023-01-08T07:52:30.807Z,172.20
2023-01-08T07:55:03.480Z,175.05
2023-01-08T07:57:35.953Z,227.30
2023-01-08T08:00:09.374Z,234.60
2023-01-08T08:02:43.524Z,216.60
2023-01-08T08:05:17.965Z,192.43
2023-01-08T08:07:50.370Z,198.03
2023-01-08T08:10:22.905Z,203.23
2023-01-08T08:12:55.343Z,214.70
2023-01-08T08:15:28.170Z,221.70
2023-01-08T08:18:00.900Z,193.13
2023-01-08T08:20:34.028Z,193.10
2023-01-08T08:23:11.173Z,183.90
2023-01-08T08:25:43.899Z,209.35
2023-01-08T08:28:16.309Z,184.45
2023-01-08T08:30:48.743Z,205.63
2023-01-08T08:33:21.509Z,177.38
2023-01-08T08:35:54.242Z,154.98
2023-01-08T08:38:26.950Z,171.98
2023-01-08T08:40:59.613Z,142.90
2023-01-08T08:43:32.319Z,175.20
2023-01-08T08:46:05.052Z,157.95
2023-01-08T08:48:37.591Z,162.70
2023-01-08T08:51:10.446Z,154.45
2023-01-08T08:53:42.990Z,185.95
2023-01-08T08:56:15.599Z,144.57
2023-01-08T08:58:48.165Z,155.23
2023-01-08T09:01:20.912Z,156.30
2023-01-08T09:03:53.478Z,136.07
2023-01-08T09:06:27.935Z,135.00
2023-01-08T09:09:00.583Z,156.43
2023-01-08T09:11:33.377Z,153.23
2023-01-08T09:14:05.889Z,144.70
2023-01-08T09:16:38.601Z,143.20
2023-01-08T09:19:11.531Z,154.23
2023-01-08T09:21:44.285Z,161.82
2023-01-08T09:24:17.054Z,168.15
2023-01-08T09:26:49.564Z,144.55
2023-01-08T09:29:22.104Z,148.25
2023-01-08T09:31:55.851Z,165.05
2023-01-08T09:34:28.499Z,140.18
2023-01-08T09:37:01.060Z,169.25
2023-01-08T09:39:34.070Z,163.05
2023-01-08T09:42:07.844Z,189.68
2023-01-08T09:44:43.167Z,210.48
2023-01-08T09:47:28.926Z,225.02
2023-01-08T09:50:06.709Z,238.52
2023-01-08T09:52:39.683Z,426.58
2023-01-08T09:55:14.744Z,323.05
2023-01-08T09:57:48.464Z,477.88
2023-01-08T10:00:30.658Z,403.73
2023-01-08T10:03:04.079Z,315.92
2023-01-08T10:05:36.643Z,342.45
2023-01-08T10:08:14.717Z,306.98
2023-01-08T10:10:47.454Z,318.80
2023-01-08T10:13:20.139Z,530.53
2023-01-08T10:15:52.704Z,392.65
2023-01-08T10:18:27.424Z,730.45
2023-01-08T10:20:59.899Z,254.25
2023-01-08T10:23:32.409Z,361.25
2023-01-08T10:26:05.212Z,319.73
2023-01-08T10:28:38.229Z,338.48
2023-01-08T10:31:17.128Z,277.00
2023-01-08T10:33:50.394Z,520.20
2023-01-08T10:36:24.679Z,270.02
2023-01-08T10:39:02.393Z,513.20
2023-01-08T10:41:40.065Z,471.55
2023-01-08T10:44:18.128Z,503.73
2023-01-08T10:46:55.116Z,641.30
2023-01-08T10:49:28.495Z,552.20
2023-01-08T10:52:01.544Z,345.00
2023-01-08T10:54:39.298Z,307.73
2023-01-08T10:57:29.463Z,372.85
2023-01-08T11:00:02.223Z,420.23
2023-01-08T11:02:40.531Z,373.13
2023-01-08T11:05:13.312Z,378.40
2023-01-08T11:07:52.934Z,482.83
2023-01-08T11:10:27.300Z,347.17
2023-01-08T11:13:04.354Z,245.82
2023-01-08T11:15:39.625Z,397.30
2023-01-08T11:20:53.136Z,459.85
2023-01-08T11:23:27.821Z,483.38
2023-01-08T11:26:18.781Z,348.95
2023-01-08T11:29:13.714Z,629.70
2023-01-08T11:31:55.076Z,476.20
2023-01-08T11:34:46.756Z,708.15
2023-01-08T11:37:28.584Z,476.70
2023-01-08T11:40:01.223Z,643.40
2023-01-08T11:42:53.056Z,441.80
2023-01-08T11:45:31.415Z,350.15
2023-01-08T11:48:23.344Z,518.92
2023-01-08T11:51:14.898Z,397.33
2023-01-08T11:54:02.924Z,428.00
2023-01-08T11:56:51.565Z,236.32
2023-01-08T11:59:25.910Z,263.45
2023-01-08T12:02:23.897Z,221.23
2023-01-08T12:05:25.460Z,261.90
2023-01-08T12:08:19.799Z,267.33
2023-01-08T12:11:02.414Z,244.90
2023-01-08T12:14:06.373Z,196.07
2023-01-08T12:17:02.171Z,181.77
2023-01-08T12:19:50.569Z,163.00
2023-01-08T12:22:45.607Z,167.70
2023-01-08T12:25:26.403Z,213.40
2023-01-08T12:28:10.939Z,172.38
2023-01-08T12:31:08.399Z,192.80
2023-01-08T12:33:59.292Z,156.68
2023-01-08T12:36:42.946Z,187.43
2023-01-08T12:39:22.125Z,145.18
2023-01-08T12:42:04.898Z,143.73
2023-01-08T12:44:40.266Z,142.80
2023-01-08T12:47:22.293Z,163.70
2023-01-08T12:50:06.524Z,159.40
2023-01-08T12:52:47.927Z,136.73
2023-01-08T12:55:44.301Z,135.23
2023-01-08T12:58:29.416Z,127.90
2023-01-08T13:01:17.803Z,146.27
2023-01-08T13:03:51.090Z,106.10
2023-01-08T13:06:24.189Z,123.50
2023-01-08T13:09:01.525Z,114.05
2023-01-08T13:11:38.635Z,113.55
2023-01-08T13:14:13.923Z,119.50
2023-01-08T13:16:48.063Z,124.07
2023-01-08T13:19:26.910Z,119.65
2023-01-08T13:22:01.275Z,120.97
2023-01-08T13:24:35.995Z,129.10
2023-01-08T13:27:17.963Z,125.85
2023-01-08T13:29:51.765Z,121.28
2023-01-08T13:32:30.063Z,132.88
2023-01-08T13:35:15.818Z,121.10
2023-01-08T13:38:11.586Z,114.68
2023-01-08T13:40:44.710Z,120.65
2023-01-08T13:43:18.869Z,134.73
2023-01-08T13:46:14.438Z,114.93
2023-01-08T13:49:04.625Z,131.32
2023-01-08T13:51:44.649Z,126.65
2023-01-08T13:54:23.709Z,113.53
2023-01-08T13:57:04.929Z,129.18
2023-01-08T13:59:41.840Z,113.13
2023-01-08T14:02:30.422Z,118.35
2023-01-08T14:05:21.986Z,123.30
2023-01-08T14:07:55.083Z,117.15
2023-01-08T14:10:30.684Z,131.45
2023-01-08T14:13:09.133Z,118.00
2023-01-08T14:15:42.280Z,117.97
2023-01-08T14:18:15.397Z,127.95
2023-01-08T14:20:51.085Z,134.27
2023-01-08T14:23:28.511Z,132.75
2023-01-08T14:26:06.598Z,130.50
2023-01-08T14:28:39.455Z,130.85
2023-01-08T14:31:22.807Z,145.07
2023-01-08T14:33:57.464Z,156.05
2023-01-08T14:36:30.401Z,172.60
2023-01-08T14:39:10.830Z,217.77
2023-01-08T14:42:01.518Z,230.15
2023-01-08T14:44:39.282Z,172.45
2023-01-08T14:47:19.253Z,191.63
2023-01-08T14:49:54.418Z,181.40
2023-01-08T14:55:03.315Z,151.95
2023-01-08T14:57:36.131Z,160.30
2023-01-08T15:00:18.627Z,172.55
2023-01-08T15:02:51.593Z,156.13
2023-01-08T15:05:33.236Z,162.55
2023-01-08T15:08:25.363Z,144.75
2023-01-08T15:11:09.291Z,148.50
2023-01-08T15:13:42.571Z,160.82
2023-01-08T15:16:46.433Z,145.02
2023-01-08T15:19:26.821Z,150.70
2023-01-08T15:22:01.891Z,160.93
2023-01-08T15:24:41.841Z,147.50
2023-01-08T15:27:20.497Z,184.75
2023-01-08T15:30:04.236Z,310.23
2023-01-08T15:32:39.191Z,247.95
2023-01-08T15:35:18.131Z,181.85
2023-01-08T15:37:51.374Z,311.40
2023-01-08T15:40:24.498Z,505.05
2023-01-08T15:43:14.188Z,320.90
2023-01-08T15:45:49.154Z,243.85
2023-01-08T15:48:22.065Z,254.52
2023-01-08T15:50:54.700Z,342.25
2023-01-08T15:53:27.384Z,319.77
2023-01-08T15:56:00.160Z,375.58
2023-01-08T15:58:33.124Z,229.02
2023-01-08T16:01:06.068Z,239.77
2023-01-08T16:03:38.820Z,158.18
2023-01-08T16:06:11.563Z,253.88
2023-01-08T16:08:46.322Z,225.93
2023-01-08T16:11:19.965Z,216.65
2023-01-08T16:13:52.716Z,248.65
2023-01-08T16:16:25.300Z,188.77
2023-01-08T16:18:59.626Z,187.90
2023-01-08T16:21:32.526Z,317.88
2023-01-08T16:24:05.884Z,196.00
2023-01-08T16:26:41.040Z,184.02
2023-01-08T16:29:13.718Z,202.48
2023-01-08T16:31:48.220Z,257.52
2023-01-08T16:34:20.951Z,198.65
2023-01-08T16:36:54.380Z,162.70
2023-01-08T16:39:27.587Z,171.73
2023-01-08T16:42:00.979Z,198.15
2023-01-08T16:44:36.923Z,227.93
2023-01-08T16:47:09.503Z,221.65
2023-01-08T16:49:42.283Z,239.68
2023-01-08T16:52:15.045Z,176.25
2023-01-08T16:54:49.772Z,301.45
2023-01-08T16:57:22.473Z,242.77
2023-01-08T16:59:56.389Z,223.30
2023-01-08T17:02:29.678Z,224.80
2023-01-08T17:05:02.416Z,227.45
2023-01-08T17:07:35.468Z,211.02
2023-01-08T17:10:09.101Z,233.00
2023-01-08T17:12:42.346Z,284.75
2023-01-08T17:15:15.364Z,270.73
2023-01-08T17:17:47.983Z,304.35
2023-01-08T17:20:20.645Z,268.85
2023-01-08T17:22:53.373Z,148.43
2023-01-08T17:25:25.990Z,209.50
2023-01-08T17:27:58.577Z,279.85
2023-01-08T17:30:31.262Z,305.23
2023-01-08T17:33:03.988Z,171.73
2023-01-08T17:35:36.680Z,278.35
2023-01-08T17:38:09.539Z,227.45
2023-01-08T17:40:42.155Z,378.60
2023-01-08T17:43:14.776Z,341.17
2023-01-08T17:45:47.618Z,278.20
2023-01-08T17:48:20.380Z,430.15
2023-01-08T17:50:53.347Z,447.27
2023-01-08T17:53:26.776Z,418.10
2023-01-08T17:56:02.078Z,347.35
2023-01-08T17:58:36.160Z,241.50
2023-01-08T18:01:13.060Z,369.83
2023-01-08T18:03:46.648Z,426.55
2023-01-08T18:06:19.340Z,376.58
2023-01-08T18:08:52.159Z,308.83
2023-01-08T18:11:25.628Z,658.58
2023-01-08T18:14:00.350Z,432.25
2023-01-08T18:16:33.534Z,307.77
2023-01-08T18:19:06.663Z,524.75
2023-01-08T18:21:39.238Z,245.43
2023-01-08T18:24:11.833Z,415.55
2023-01-08T18:26:46.643Z,297.02
2023-01-08T18:29:19.196Z,345.92
2023-01-08T18:31:51.939Z,421.13
2023-01-08T18:34:24.549Z,346.15
2023-01-08T18:36:56.983Z,388.27
2023-01-08T18:39:30.267Z,594.08
2023-01-08T18:42:18.171Z,334.05
2023-01-08T18:44:52.821Z,322.23
2023-01-08T18:47:28.937Z,385.20
2023-01-08T18:50:03.939Z,450.25
2023-01-08T18:52:36.883Z,476.58
2023-01-08T18:55:09.883Z,505.80
2023-01-08T18:57:44.854Z,291.48
2023-01-08T19:00:19.159Z,468.65
2023-01-08T19:02:52.909Z,364.98
2023-01-08T19:05:26.288Z,427.38
2023-01-08T19:07:59.954Z,718.25
2023-01-08T19:10:32.542Z,506.05
2023-01-08T19:13:06.373Z,502.52
2023-01-08T19:15:39.409Z,457.90
2023-01-08T19:18:13.113Z,477.88
2023-01-08T19:20:46.480Z,512.63
2023-01-08T19:23:19.257Z,533.72
2023-01-08T19:25:52.082Z,309.48
2023-01-08T19:28:25.078Z,341.17
2023-01-08T19:30:58.934Z,596.80
2023-01-08T19:33:31.876Z,365.63
2023-01-08T19:36:12.113Z,540.70
2023-01-08T19:38:45.093Z,348.77
2023-01-08T19:41:34.093Z,516.00
2023-01-08T19:44:08.715Z,343.08
2023-01-08T19:46:41.264Z,607.72
2023-01-08T19:49:13.919Z,255.70
2023-01-08T19:51:46.922Z,386.00
2023-01-08T19:54:22.555Z,419.45
2023-01-08T19:56:55.904Z,325.95
2023-01-08T19:59:29.310Z,306.58
2023-01-08T20:02:02.274Z,339.02
2023-01-08T20:04:38.849Z,358.67
2023-01-08T20:07:13.862Z,282.90
2023-01-08T20:09:46.499Z,238.05
2023-01-08T20:12:19.317Z,200.63
2023-01-08T20:14:51.934Z,167.60
2023-01-08T20:17:25.665Z,173.32
2023-01-08T20:19:58.328Z,186.68
2023-01-08T20:22:31.634Z,262.23
2023-01-08T20:25:04.906Z,215.48
2023-01-08T20:27:38.034Z,240.18
2023-01-08T20:30:11.283Z,332.65
2023-01-08T20:32:43.984Z,267.17
2023-01-08T20:35:16.501Z,245.90
2023-01-08T20:37:49.093Z,204.65
2023-01-08T20:40:22.176Z,189.25
2023-01-08T20:42:54.660Z,499.58
2023-01-08T20:45:27.309Z,491.88
2023-01-08T20:48:00.243Z,300.92
2023-01-08T20:50:32.782Z,188.10
2023-01-08T20:53:05.835Z,175.63
2023-01-08T20:55:39.211Z,254.43
2023-01-08T20:58:12.621Z,344.88
2023-01-08T21:00:45.807Z,217.82
2023-01-08T21:03:18.670Z,310.08
2023-01-08T21:05:51.207Z,183.70
2023-01-08T21:08:24.973Z,199.65
2023-01-08T21:10:59.647Z,232.70
2023-01-08T21:13:32.356Z,323.98
2023-01-08T21:16:08.016Z,235.85
2023-01-08T21:22:39.037Z,261.27
2023-01-08T21:25:12.273Z,199.02
2023-01-08T21:27:44.940Z,230.82
2023-01-08T21:30:17.920Z,193.07
2023-01-08T21:32:50.594Z,307.88
2023-01-08T21:35:23.159Z,289.05
2023-01-08T21:37:55.862Z,288.52
2023-01-08T21:40:28.422Z,306.00
2023-01-08T21:43:17.230Z,340.63
2023-01-08T21:45:53.214Z,287.30
2023-01-08T21:48:25.900Z,432.98
2023-01-08T21:50:58.725Z,424.02
2023-01-08T21:53:34.102Z,263.42
2023-01-08T21:56:07.940Z,237.23
2023-01-08T21:58:40.521Z,314.90
2023-01-08T22:01:14.369Z,255.50
2023-01-08T22:03:47.030Z,251.43
2023-01-08T22:06:19.524Z,591.85
2023-01-08T22:08:53.855Z,479.63
2023-01-08T22:11:27.054Z,355.92
2023-01-08T22:14:00.354Z,415.27
2023-01-08T22:16:33.004Z,545.15
2023-01-08T22:19:05.648Z,715.83
2023-01-08T22:21:39.038Z,283.67
2023-01-08T22:24:11.705Z,436.83
2023-01-08T22:26:44.282Z,286.92
2023-01-08T22:29:17.464Z,217.45
2023-01-08T22:31:50.022Z,358.40
2023-01-08T22:34:22.581Z,212.10
2023-01-08T22:36:55.073Z,325.45
2023-01-08T22:39:27.826Z,353.33
2023-01-08T22:42:00.895Z,221.18
2023-01-08T22:44:33.559Z,222.55
2023-01-08T22:47:06.322Z,185.55
2023-01-08T22:49:38.925Z,183.05
2023-01-08T22:52:12.034Z,148.00
2023-01-08T22:54:44.656Z,142.07
2023-01-08T22:57:17.236Z,227.38
2023-01-08T22:59:49.818Z,143.40
2023-01-08T23:02:24.612Z,118.22
2023-01-08T23:04:58.513Z,149.88
2023-01-08T23:07:31.153Z,125.35
2023-01-08T23:10:03.825Z,99.35
2023-01-08T23:12:36.311Z,98.03
2023-01-08T23:15:09.459Z,97.32
2023-01-08T23:17:52.225Z,134.70
2023-01-08T23:20:25.380Z,150.60
2023-01-08T23:22:57.850Z,140.27
2023-01-08T23:25:32.176Z,272.42
2023-01-08T23:28:04.749Z,126.10
2023-01-08T23:30:40.203Z,231.85
2023-01-08T23:33:12.660Z,121.03
2023-01-08T23:35:45.047Z,125.95
2023-01-08T23:38:17.744Z,126.05
2023-01-08T23:40:50.356Z,175.52
2023-01-08T23:43:22.980Z,200.27
2023-01-08T23:45:55.925Z,182.15
2023-01-08T23:48:28.459Z,225.88
2023-01-08T23:51:01.301Z,215.85
2023-01-08T23:53:33.881Z,110.40
2023-01-08T23:56:07.745Z,119.18
2023-01-08T23:58:40.299Z,115.82
